MMGM

General José María Yáñez International Airport

Guaymas, Mexico
TAF MMGM 210432Z 2106/2206 20006KT P6SM SCT200 FM211800 25012KT P6SM SCT090 SCT220 BECMG 2202/2204 34005KT
Issued Valid From Valid To
Apr-21 @ 04:32 UTC
(5 hours ago)
Apr-21 @ 06:00 UTC
(4 hours ago)
Apr-22 @ 06:00 UTC
(in 20 hours)
Apr-21 @ 06:00 to Apr-21 @ 18:00
TAF MMGM 210432Z 2106/2206 20006KT P6SM SCT200
Wind Visibility Clouds
200° at 6 knots Greater than 6 miles
  • Scattered at 20,000' AGL
From Apr-21 @ 18:00 to Apr-22 @ 02:00
FM211800 25012KT P6SM SCT090 SCT220
Wind Visibility Clouds
250° at 12 knots Greater than 6 miles
  • Scattered at 9,000' AGL
  • Scattered at 22,000' AGL
Becoming Apr-22 @ 02:00 to Apr-22 @ 06:00
BECMG 2202/2204 34005KT
Wind Visibility Clouds
340° at 5 knots Greater than 6 miles
  • Scattered at 9,000' AGL
  • Scattered at 22,000' AGL
TAF MMGM 210432Z 2106/2206 20006KT P6SM SCT200 FM211800 25012KT P6SM SCT090 SCT220 BECMG 2202/2204 34005KT
Issued Apr-21 @ 04:32 UTC
(5 hours ago)
Valid From Apr-21 @ 06:00 UTC
(4 hours ago)
Valid To Apr-22 @ 06:00 UTC
(in 20 hours)
Apr-21 @ 06:00 - Apr-21 @ 18:00
Wind Visibility
200° at 6 knots Greater than 6 miles
Clouds
  • Scattered at 20,000' AGL
From Apr-21 @ 18:00 - Apr-22 @ 02:00
Wind Visibility
250° at 12 knots Greater than 6 miles
Clouds
  • Scattered at 9,000' AGL
  • Scattered at 22,000' AGL
Becoming Apr-22 @ 02:00 - Apr-22 @ 06:00
Wind Visibility
340° at 5 knots Greater than 6 miles
Clouds
  • Scattered at 9,000' AGL
  • Scattered at 22,000' AGL